SAAR/ROS METAR and TAF weather

Enter ICAO airport designator
Station Type Date Time Source
SAAR METAR 2020/09/19 18:00 UTC NOAA

SAAR 191800Z 20011KT CAVOK 18/M07 Q1024


Station Type Date Time Source
SAAR Decoded METAR 2020/09/19 18:00 UTC NOAA

Rosario Aerodrome, Argentina (SAAR) 32-55S 060-47W 25M
Sep 19, 2020 - 02:00 PM EDT / 2020.09.19 1800 UTC
Wind: from the SSW (200 degrees) at 13 MPH (11 KT):0
Visibility: greater than 7 mile(s):0
Temperature: 64 F (18 C)
Dew Point: 19 F (-7 C)
Relative Humidity: 17%
Pressure (altimeter): 30.24 in. Hg (1024 hPa)
ob: SAAR 191800Z 20011KT CAVOK 18/M07 Q1024
cycle: 18

Station Type Date Time Source
SAAR TAF 2020/09/19 18:09 UTC NOAA

TAF TAF SAAR 191700Z 1918/2018 20015KT CAVOK TX21/2018Z TN05/2010Z
BECMG 1919/1921 18005KT
BECMG 1923/2001 VRB03KT
BECMG 2010/2013 36010KT

Example: see airport list